메인 페이지
METAR-TAF:

METAR-TAF

공항 :

시드니 킹스포드 스미스 국제공항

시드니, 오스트레일리아

위도: 33-57S, 경도: 151-11E, 고도: 6m

현재 날씨관측

예보는 25분 전, 20:30시(UTC)에 발표되었습니다.
15kt, 순간 최대 풍속 25kt
온도 10°C
습도 50%
기압 1015 hPa
시정 10km 이상
1500m 미만 상공 구름 및 적란운 없음

METAR: YSSY 202030Z 32007KT CAVOK 10/00 Q1015 FM2200 26015G25KT CAVOK FM2030 MOD/SEV TURB BLW 5000FT

시각: 06:55 (20:55 UTC)

예보

예보는 4 시간 14분 전, 16:41시(UTC)에 발표되었습니다.
예보 대상 시간: 20일 18시부터 21일 24시까지 (UTC)
10kt
시정 10km 이상
1500m 미만 상공 구름 및 적란운 없음
20일 2200시부터 (UTC)
15kt, 순간 최대 풍속 25kt
시정 10km 이상
1500m 미만 상공 구름 및 적란운 없음
21일 0100시부터 (UTC)
25kt, 순간 최대 풍속 35kt
시정 10km 이상
1500m 미만 상공 구름 및 적란운 없음
21일 0900시부터 (UTC)
15kt, 순간 최대 풍속 25kt
시정 10km 이상
1500m 미만 상공 구름 및 적란운 없음
21일 1800시부터 (UTC)
서남서12kt
시정 10km 이상
1500m 미만 상공 구름 및 적란운 없음

TAF: YSSY 201641Z 2018/2124 26010KT CAVOK FM202200 26015G25KT CAVOK FM210100 26025G35KT CAVOK FM210900 26015G25KT CAVOK FM211800 24012KT CAVOK

4,000개 이상의 공항 관측 자료 및 예보 (METAR 및 TAF 보고).

지도상에서 검색 가능한 기상관측소가 노란 점과 빨간 점으로 표시되어 있습니다.

기상관측소 명을 보려면 표시 위로 마우스를 이동하세요.

날씨 관측과 예보를 보려면 클릭하세요.

지도 변경 : 확대하려면 엑스 표시가 있는 녹색 버튼, 축소하려면 빼기 표시가 있는 녹색 버튼, 다음 페이지의 지도를 보려면 녹색 화살표를 클릭하세요.


METAR-TAF: